sensor_id;sensor_type;location;lat;lon;timestamp;pressure;altitude;pressure_sealevel;temperature;humidity
77205;BME280;67992;46.618;18.850;2023-04-12T00:02:19;99812.75;;;14.08;44.62
77205;BME280;67992;46.618;18.850;2023-04-12T00:04:44;99818.09;;;14.08;44.34
77205;BME280;67992;46.618;18.850;2023-04-12T00:07:09;99809.03;;;14.09;44.34
77205;BME280;67992;46.618;18.850;2023-04-12T00:09:36;99804.72;;;14.08;44.09
77205;BME280;67992;46.618;18.850;2023-04-12T00:12:02;99807.56;;;14.06;44.38
77205;BME280;67992;46.618;18.850;2023-04-12T00:14:31;99811.91;;;14.07;44.48
77205;BME280;67992;46.618;18.850;2023-04-12T00:16:59;99812.75;;;14.08;44.10
77205;BME280;67992;46.618;18.850;2023-04-12T00:19:25;99814.59;;;14.07;44.58
77205;BME280;67992;46.618;18.850;2023-04-12T00:21:51;99817.25;;;14.07;44.34
77205;BME280;67992;46.618;18.850;2023-04-12T00:24:17;99805.72;;;14.07;44.09
77205;BME280;67992;46.618;18.850;2023-04-12T00:26:43;99804.72;;;14.08;44.01
77205;BME280;67992;46.618;18.850;2023-04-12T00:29:09;99800.38;;;14.07;44.55
77205;BME280;67992;46.618;18.850;2023-04-12T00:31:35;99809.22;;;14.07;43.96
77205;BME280;67992;46.618;18.850;2023-04-12T00:34:03;99803.22;;;14.05;44.08
77205;BME280;67992;46.618;18.850;2023-04-12T00:36:29;99799.53;;;14.06;44.05
77205;BME280;67992;46.618;18.850;2023-04-12T00:38:55;99790.69;;;14.06;44.20
77205;BME280;67992;46.618;18.850;2023-04-12T00:41:25;99796.84;;;14.06;43.96
77205;BME280;67992;46.618;18.850;2023-04-12T00:43:50;99793.53;;;14.04;43.61
77205;BME280;67992;46.618;18.850;2023-04-12T00:46:16;99800.56;;;14.05;44.38
77205;BME280;67992;46.618;18.850;2023-04-12T00:48:44;99790.00;;;14.04;44.40
77205;BME280;67992;46.618;18.850;2023-04-12T00:51:12;99805.06;;;14.05;43.89
77205;BME280;67992;46.618;18.850;2023-04-12T00:53:42;99786.53;;;14.03;44.35
77205;BME280;67992;46.618;18.850;2023-04-12T00:56:08;99778.84;;;14.00;44.31
77205;BME280;67992;46.618;18.850;2023-04-12T00:58:36;99785.50;;;14.04;43.73
77205;BME280;67992;46.618;18.850;2023-04-12T01:01:05;99780.00;;;14.06;43.98
77205;BME280;67992;46.618;18.850;2023-04-12T01:03:31;99771.28;;;14.04;43.67
77205;BME280;67992;46.618;18.850;2023-04-12T01:08:54;99772.13;;;14.04;43.83
77205;BME280;67992;46.618;18.850;2023-04-12T01:11:37;99753.44;;;13.96;43.78
77205;BME280;67992;46.618;18.850;2023-04-12T01:14:21;99774.16;;;14.02;43.15
77205;BME280;67992;46.618;18.850;2023-04-12T01:16:56;99779.50;;;14.02;43.97
77205;BME280;67992;46.618;18.850;2023-04-12T01:27:38;99774.16;;;14.02;43.82
77205;BME280;67992;46.618;18.850;2023-04-12T01:30:10;99772.31;;;14.03;44.00
77205;BME280;67992;46.618;18.850;2023-04-12T01:32:38;99768.78;;;14.02;43.71
77205;BME280;67992;46.618;18.850;2023-04-12T01:35:06;99764.63;;;14.00;43.54
77205;BME280;67992;46.618;18.850;2023-04-12T01:37:33;99769.78;;;14.01;43.85
77205;BME280;67992;46.618;18.850;2023-04-12T01:40:00;99752.97;;;13.92;44.13
77205;BME280;67992;46.618;18.850;2023-04-12T01:42:25;99769.63;;;14.03;43.92
77205;BME280;67992;46.618;18.850;2023-04-12T01:44:51;99768.13;;;14.00;43.87
77205;BME280;67992;46.618;18.850;2023-04-12T01:47:17;99772.47;;;14.01;43.53
77205;BME280;67992;46.618;18.850;2023-04-12T01:49:52;99760.81;;;13.94;43.50
77205;BME280;67992;46.618;18.850;2023-04-12T01:52:21;99759.28;;;14.00;43.59
77205;BME280;67992;46.618;18.850;2023-04-12T01:54:53;99754.13;;;13.98;43.75
77205;BME280;67992;46.618;18.850;2023-04-12T01:57:22;99761.94;;;14.00;43.39
77205;BME280;67992;46.618;18.850;2023-04-12T01:59:49;99740.44;;;13.93;43.92
77205;BME280;67992;46.618;18.850;2023-04-12T02:02:16;99756.94;;;13.97;44.41
77205;BME280;67992;46.618;18.850;2023-04-12T02:04:45;99749.56;;;13.99;43.50
77205;BME280;67992;46.618;18.850;2023-04-12T02:07:12;99756.59;;;14.00;44.08
77205;BME280;67992;46.618;18.850;2023-04-12T02:09:48;99754.13;;;13.98;43.57
77205;BME280;67992;46.618;18.850;2023-04-12T02:12:16;99768.50;;;13.97;44.10
77205;BME280;67992;46.618;18.850;2023-04-12T02:14:42;99767.50;;;13.98;44.13
77205;BME280;67992;46.618;18.850;2023-04-12T02:17:07;99762.13;;;13.98;43.65
77205;BME280;67992;46.618;18.850;2023-04-12T02:19:33;99770.31;;;13.97;43.83
77205;BME280;67992;46.618;18.850;2023-04-12T02:21:59;99765.81;;;13.97;43.84
77205;BME280;67992;46.618;18.850;2023-04-12T02:24:27;99762.13;;;13.98;43.53
77205;BME280;67992;46.618;18.850;2023-04-12T02:26:53;99757.47;;;13.92;43.78
77205;BME280;67992;46.618;18.850;2023-04-12T02:29:19;99773.84;;;13.97;43.97
77205;BME280;67992;46.618;18.850;2023-04-12T02:31:44;99769.47;;;13.96;43.85
77205;BME280;67992;46.618;18.850;2023-04-12T02:34:10;99760.34;;;13.90;44.06
77205;BME280;67992;46.618;18.850;2023-04-12T02:36:37;99767.66;;;13.97;43.36
77205;BME280;67992;46.618;18.850;2023-04-12T02:39:03;99766.00;;;13.96;43.81
77205;BME280;67992;46.618;18.850;2023-04-12T02:41:28;99771.34;;;13.96;42.90
77205;BME280;67992;46.618;18.850;2023-04-12T02:43:54;99768.66;;;13.96;43.99
77205;BME280;67992;46.618;18.850;2023-04-12T02:46:24;99773.19;;;13.95;43.67
77205;BME280;67992;46.618;18.850;2023-04-12T02:48:51;99769.47;;;13.96;43.44
77205;BME280;67992;46.618;18.850;2023-04-12T02:51:16;99751.78;;;13.95;43.14
77205;BME280;67992;46.618;18.850;2023-04-12T02:53:42;99750.09;;;13.94;43.86
77205;BME280;67992;46.618;18.850;2023-04-12T02:56:08;99743.44;;;13.90;44.12
77205;BME280;67992;46.618;18.850;2023-04-12T02:58:34;99746.59;;;13.93;44.08
77205;BME280;67992;46.618;18.850;2023-04-12T03:01:04;99743.09;;;13.93;43.43
77205;BME280;67992;46.618;18.850;2023-04-12T03:03:35;99757.13;;;13.95;43.15
77205;BME280;67992;46.618;18.850;2023-04-12T03:06:01;99741.44;;;13.92;43.21
77205;BME280;67992;46.618;18.850;2023-04-12T03:08:29;99742.78;;;13.88;43.19
77205;BME280;67992;46.618;18.850;2023-04-12T03:10:55;99741.44;;;13.92;43.14
77205;BME280;67992;46.618;18.850;2023-04-12T03:13:21;99743.78;;;13.87;43.59
77205;BME280;67992;46.618;18.850;2023-04-12T03:15:58;99743.09;;;13.93;43.08
77205;BME280;67992;46.618;18.850;2023-04-12T03:18:24;99741.44;;;13.92;43.69
77205;BME280;67992;46.618;18.850;2023-04-12T03:20:50;99751.28;;;13.91;43.35
77205;BME280;67992;46.618;18.850;2023-04-12T03:23:20;99736.06;;;13.92;42.57
77205;BME280;67992;46.618;18.850;2023-04-12T03:25:46;99730.72;;;13.92;43.39
77205;BME280;67992;46.618;18.850;2023-04-12T03:28:11;99732.56;;;13.91;43.49
77205;BME280;67992;46.618;18.850;2023-04-12T03:30:37;99732.56;;;13.91;43.13
77205;BME280;67992;46.618;18.850;2023-04-12T03:33:02;99739.75;;;13.91;42.60
77205;BME280;67992;46.618;18.850;2023-04-12T03:35:28;99729.06;;;13.91;43.05
77205;BME280;67992;46.618;18.850;2023-04-12T03:37:54;99723.41;;;13.86;43.21
77205;BME280;67992;46.618;18.850;2023-04-12T03:40:19;99733.59;;;13.90;43.54
77205;BME280;67992;46.618;18.850;2023-04-12T03:42:45;99730.06;;;13.90;43.42
77205;BME280;67992;46.618;18.850;2023-04-12T03:45:16;99731.06;;;13.89;43.81
77205;BME280;67992;46.618;18.850;2023-04-12T03:47:41;99733.75;;;13.89;43.31
77205;BME280;67992;46.618;18.850;2023-04-12T03:50:07;99733.75;;;13.89;43.75
77205;BME280;67992;46.618;18.850;2023-04-12T03:52:34;99744.44;;;13.89;43.15
77205;BME280;67992;46.618;18.850;2023-04-12T03:55:00;99715.75;;;13.83;42.49
77205;BME280;67992;46.618;18.850;2023-04-12T03:57:26;99738.44;;;13.87;43.68
77205;BME280;67992;46.618;18.850;2023-04-12T03:59:51;99744.44;;;13.89;43.49
77205;BME280;67992;46.618;18.850;2023-04-12T04:02:17;99736.41;;;13.89;43.26
77205;BME280;67992;46.618;18.850;2023-04-12T04:04:43;99741.78;;;13.89;43.43
77205;BME280;67992;46.618;18.850;2023-04-12T04:07:09;99739.09;;;13.89;43.63
77205;BME280;67992;46.618;18.850;2023-04-12T04:09:35;99747.13;;;13.89;43.07
77205;BME280;67992;46.618;18.850;2023-04-12T04:12:01;99746.28;;;13.88;43.35
77205;BME280;67992;46.618;18.850;2023-04-12T04:14:26;99749.78;;;13.89;42.43
77205;BME280;67992;46.618;18.850;2023-04-12T04:16:52;99755.16;;;13.89;42.81
77205;BME280;67992;46.618;18.850;2023-04-12T04:19:19;99745.47;;;13.88;43.47
77205;BME280;67992;46.618;18.850;2023-04-12T04:21:45;99739.28;;;13.87;43.73
77205;BME280;67992;46.618;18.850;2023-04-12T04:24:14;99733.09;;;13.87;43.36
77205;BME280;67992;46.618;18.850;2023-04-12T04:26:43;99736.13;;;13.84;43.63
77205;BME280;67992;46.618;18.850;2023-04-12T04:29:09;99713.41;;;13.80;42.60
77205;BME280;67992;46.618;18.850;2023-04-12T04:31:39;99716.94;;;13.80;43.40
77205;BME280;67992;46.618;18.850;2023-04-12T04:34:05;99719.72;;;13.87;42.92
77205;BME280;67992;46.618;18.850;2023-04-12T04:36:37;99713.53;;;13.86;42.70
77205;BME280;67992;46.618;18.850;2023-04-12T04:39:03;99710.03;;;13.86;43.48
77205;BME280;67992;46.618;18.850;2023-04-12T04:41:30;99711.69;;;13.87;42.84
77205;BME280;67992;46.618;18.850;2023-04-12T04:44:01;99702.00;;;13.86;42.86
77205;BME280;67992;46.618;18.850;2023-04-12T04:46:28;99705.50;;;13.86;43.10
77205;BME280;67992;46.618;18.850;2023-04-12T04:48:55;99694.50;;;13.81;43.35
77205;BME280;67992;46.618;18.850;2023-04-12T04:51:20;99707.34;;;13.86;42.98
77205;BME280;67992;46.618;18.850;2023-04-12T04:53:49;99720.06;;;13.84;43.28
77205;BME280;67992;46.618;18.850;2023-04-12T04:56:15;99711.69;;;13.87;43.23
77205;BME280;67992;46.618;18.850;2023-04-12T04:58:43;99722.41;;;13.87;43.02
77205;BME280;67992;46.618;18.850;2023-04-12T05:01:10;99711.72;;;13.79;43.00
77205;BME280;67992;46.618;18.850;2023-04-12T05:03:37;99716.56;;;13.83;43.48
77205;BME280;67992;46.618;18.850;2023-04-12T05:06:05;99733.94;;;13.87;42.83
77205;BME280;67992;46.618;18.850;2023-04-12T05:08:31;99733.75;;;13.89;42.95
77205;BME280;67992;46.618;18.850;2023-04-12T05:10:56;99706.38;;;13.79;43.10
77205;BME280;67992;46.618;18.850;2023-04-12T05:13:22;99728.41;;;13.89;43.16
77205;BME280;67992;46.618;18.850;2023-04-12T05:15:51;99732.56;;;13.91;43.35
77205;BME280;67992;46.618;18.850;2023-04-12T05:18:17;99720.88;;;13.92;43.22
77205;BME280;67992;46.618;18.850;2023-04-12T05:20:45;99741.09;;;13.95;43.42
77205;BME280;67992;46.618;18.850;2023-04-12T05:23:12;99741.09;;;13.95;43.05
77205;BME280;67992;46.618;18.850;2023-04-12T05:25:43;99753.44;;;13.96;42.91
77205;BME280;67992;46.618;18.850;2023-04-12T05:28:09;99743.41;;;13.98;43.37
77205;BME280;67992;46.618;18.850;2023-04-12T05:30:38;99739.91;;;13.98;42.30
77205;BME280;67992;46.618;18.850;2023-04-12T05:33:06;99738.41;;;13.95;43.12
77205;BME280;67992;46.618;18.850;2023-04-12T05:35:32;99740.34;;;14.01;43.11
77205;BME280;67992;46.618;18.850;2023-04-12T05:38:00;99741.19;;;14.02;42.15
77205;BME280;67992;46.618;18.850;2023-04-12T05:40:29;99742.69;;;14.04;43.07
77205;BME280;67992;46.618;18.850;2023-04-12T05:42:57;99732.81;;;14.05;42.93
77205;BME280;67992;46.618;18.850;2023-04-12T05:45:29;99738.00;;;14.06;42.34
77205;BME280;67992;46.618;18.850;2023-04-12T05:47:55;99741.34;;;14.08;43.10
77205;BME280;67992;46.618;18.850;2023-04-12T05:50:21;99732.28;;;14.09;43.59
77205;BME280;67992;46.618;18.850;2023-04-12T05:52:50;99730.28;;;14.11;42.39
77205;BME280;67992;46.618;18.850;2023-04-12T05:55:15;99734.63;;;14.12;42.61
77205;BME280;67992;46.618;18.850;2023-04-12T05:57:43;99730.09;;;14.13;42.25
77205;BME280;67992;46.618;18.850;2023-04-12T06:00:10;99729.06;;;14.14;42.54
77205;BME280;67992;46.618;18.850;2023-04-12T06:02:47;99718.91;;;14.09;42.34
77205;BME280;67992;46.618;18.850;2023-04-12T06:05:13;99731.41;;;14.17;42.61
77205;BME280;67992;46.618;18.850;2023-04-12T06:07:39;99736.59;;;14.18;42.64
77205;BME280;67992;46.618;18.850;2023-04-12T06:10:09;99727.53;;;14.19;42.22
77205;BME280;67992;46.618;18.850;2023-04-12T06:12:35;99737.25;;;14.20;42.29
77205;BME280;67992;46.618;18.850;2023-04-12T06:15:03;99729.22;;;14.20;42.69
77205;BME280;67992;46.618;18.850;2023-04-12T06:17:32;99715.66;;;14.22;42.12
77205;BME280;67992;46.618;18.850;2023-04-12T06:19:57;99721.84;;;14.22;42.49
77205;BME280;67992;46.618;18.850;2023-04-12T06:22:23;99718.16;;;14.23;42.47
77205;BME280;67992;46.618;18.850;2023-04-12T06:24:48;99724.31;;;14.24;42.73
77205;BME280;67992;46.618;18.850;2023-04-12T06:27:18;99724.31;;;14.24;42.07
77205;BME280;67992;46.618;18.850;2023-04-12T06:29:45;99726.84;;;14.25;42.87
77205;BME280;67992;46.618;18.850;2023-04-12T06:32:10;99728.34;;;14.28;42.23
77205;BME280;67992;46.618;18.850;2023-04-12T06:34:38;99734.69;;;14.27;42.50
77205;BME280;67992;46.618;18.850;2023-04-12T06:37:04;99727.31;;;14.29;43.00
77205;BME280;67992;46.618;18.850;2023-04-12T06:39:32;99725.47;;;14.29;42.67
77205;BME280;67992;46.618;18.850;2023-04-12T06:42:01;99723.63;;;14.30;42.59
77205;BME280;67992;46.618;18.850;2023-04-12T06:44:30;99720.00;;;14.31;42.35
77205;BME280;67992;46.618;18.850;2023-04-12T06:46:57;99714.44;;;14.32;42.87
77205;BME280;67992;46.618;18.850;2023-04-12T06:49:23;99711.25;;;14.29;43.12
77205;BME280;67992;46.618;18.850;2023-04-12T06:51:48;99721.47;;;14.33;42.82
77205;BME280;67992;46.618;18.850;2023-04-12T06:54:14;99708.09;;;14.33;42.35
77205;BME280;67992;46.618;18.850;2023-04-12T06:56:39;99697.22;;;14.27;41.96
77205;BME280;67992;46.618;18.850;2023-04-12T06:59:05;99713.91;;;14.37;42.61
77205;BME280;67992;46.618;18.850;2023-04-12T07:01:37;99711.22;;;14.37;43.00
77205;BME280;67992;46.618;18.850;2023-04-12T07:04:03;99707.75;;;14.28;42.29
77205;BME280;67992;46.618;18.850;2023-04-12T07:06:31;99707.75;;;14.28;42.55
77205;BME280;67992;46.618;18.850;2023-04-12T07:08:57;99717.75;;;14.34;42.46
77205;BME280;67992;46.618;18.850;2023-04-12T07:11:25;99718.06;;;14.39;42.70
77205;BME280;67992;46.618;18.850;2023-04-12T07:13:55;99723.41;;;14.39;41.97
77205;BME280;67992;46.618;18.850;2023-04-12T07:16:23;99730.25;;;14.42;41.90
77205;BME280;67992;46.618;18.850;2023-04-12T07:18:49;99728.25;;;14.44;42.42
77205;BME280;67992;46.618;18.850;2023-04-12T07:21:14;99728.41;;;14.42;42.34
77205;BME280;67992;46.618;18.850;2023-04-12T07:23:42;99737.09;;;14.44;41.98
77205;BME280;67992;46.618;18.850;2023-04-12T07:26:07;99736.28;;;14.44;41.59
77205;BME280;67992;46.618;18.850;2023-04-12T07:28:33;99737.94;;;14.45;42.30
77205;BME280;67992;46.618;18.850;2023-04-12T07:31:03;99735.91;;;14.47;42.27
77205;BME280;67992;46.618;18.850;2023-04-12T07:33:28;99735.09;;;14.46;42.39
77205;BME280;67992;46.618;18.850;2023-04-12T07:35:55;99741.25;;;14.47;42.34
77205;BME280;67992;46.618;18.850;2023-04-12T07:38:23;99725.44;;;14.37;41.89
77205;BME280;67992;46.618;18.850;2023-04-12T07:40:48;99742.94;;;14.48;42.17
77205;BME280;67992;46.618;18.850;2023-04-12T07:43:17;99750.97;;;14.48;41.57
77205;BME280;67992;46.618;18.850;2023-04-12T07:45:43;99752.47;;;14.50;41.51
77205;BME280;67992;46.618;18.850;2023-04-12T07:48:09;99744.63;;;14.49;41.50
77205;BME280;67992;46.618;18.850;2023-04-12T07:50:39;99743.78;;;14.48;41.55
77205;BME280;67992;46.618;18.850;2023-04-12T07:53:22;99749.97;;;14.49;42.00
77205;BME280;67992;46.618;18.850;2023-04-12T07:55:48;99733.91;;;14.49;41.77
77205;BME280;67992;46.618;18.850;2023-04-12T07:58:19;99731.59;;;14.46;42.19
77205;BME280;67992;46.618;18.850;2023-04-12T08:00:46;99733.72;;;14.50;41.61
77205;BME280;67992;46.618;18.850;2023-04-12T08:03:13;99733.72;;;14.50;41.66
77205;BME280;67992;46.618;18.850;2023-04-12T08:05:42;99736.41;;;14.50;41.77
77205;BME280;67992;46.618;18.850;2023-04-12T08:08:09;99730.84;;;14.52;41.40
77205;BME280;67992;46.618;18.850;2023-04-12T08:10:35;99737.03;;;14.52;42.20
77205;BME280;67992;46.618;18.850;2023-04-12T08:13:03;99738.88;;;14.52;41.73
77205;BME280;67992;46.618;18.850;2023-04-12T08:15:28;99730.84;;;14.52;41.60
77205;BME280;67992;46.618;18.850;2023-04-12T08:17:54;99717.34;;;14.45;41.58
77205;BME280;67992;46.618;18.850;2023-04-12T08:20:19;99730.69;;;14.53;41.36
77205;BME280;67992;46.618;18.850;2023-04-12T08:22:45;99723.00;;;14.50;41.97
77205;BME280;67992;46.618;18.850;2023-04-12T08:25:11;99722.00;;;14.51;41.91
77205;BME280;67992;46.618;18.850;2023-04-12T08:27:41;99726.16;;;14.54;41.60
77205;BME280;67992;46.618;18.850;2023-04-12T08:30:13;99740.22;;;14.56;41.34
77205;BME280;67992;46.618;18.850;2023-04-12T08:32:39;99728.66;;;14.55;42.17
77205;BME280;67992;46.618;18.850;2023-04-12T08:35:06;99731.34;;;14.55;41.29
77205;BME280;67992;46.618;18.850;2023-04-12T08:37:32;99712.84;;;14.46;41.69
77205;BME280;67992;46.618;18.850;2023-04-12T08:40:07;99727.66;;;14.57;41.54
77205;BME280;67992;46.618;18.850;2023-04-12T08:42:36;99725.78;;;14.57;41.69
77205;BME280;67992;46.618;18.850;2023-04-12T08:45:06;99730.69;;;14.53;41.72
77205;BME280;67992;46.618;18.850;2023-04-12T08:47:37;99725.78;;;14.57;41.33
77205;BME280;67992;46.618;18.850;2023-04-12T08:50:04;99737.97;;;14.60;41.13
77205;BME280;67992;46.618;18.850;2023-04-12T08:52:34;99713.44;;;14.56;42.08
77205;BME280;67992;46.618;18.850;2023-04-12T08:55:04;99716.56;;;14.60;41.39
77205;BME280;67992;46.618;18.850;2023-04-12T08:57:30;99731.63;;;14.61;41.84
77205;BME280;67992;46.618;18.850;2023-04-12T08:59:59;99712.59;;;14.55;41.19
77205;BME280;67992;46.618;18.850;2023-04-12T09:02:27;99714.56;;;14.62;41.23
77205;BME280;67992;46.618;18.850;2023-04-12T09:04:54;99718.03;;;14.62;41.43
77205;BME280;67992;46.618;18.850;2023-04-12T09:07:25;99709.00;;;14.63;41.36
77205;BME280;67992;46.618;18.850;2023-04-12T09:09:56;99711.50;;;14.65;41.86
77205;BME280;67992;46.618;18.850;2023-04-12T09:12:22;99702.53;;;14.57;41.95
77205;BME280;67992;46.618;18.850;2023-04-12T09:15:07;99711.34;;;14.66;41.54
77205;BME280;67992;46.618;18.850;2023-04-12T09:17:37;99718.53;;;14.66;41.39
77205;BME280;67992;46.618;18.850;2023-04-12T09:20:23;99720.22;;;14.67;41.46
77205;BME280;67992;46.618;18.850;2023-04-12T09:22:53;99722.88;;;14.67;41.68
77205;BME280;67992;46.618;18.850;2023-04-12T09:25:37;99716.50;;;14.68;41.17
77205;BME280;67992;46.618;18.850;2023-04-12T09:28:04;99718.16;;;14.69;41.80
77205;BME280;67992;46.618;18.850;2023-04-12T09:30:45;99721.69;;;14.69;41.60
77205;BME280;67992;46.618;18.850;2023-04-12T09:33:20;99724.38;;;14.69;41.57
77205;BME280;67992;46.618;18.850;2023-04-12T09:35:49;99711.78;;;14.70;41.29
77205;BME280;67992;46.618;18.850;2023-04-12T09:38:18;99708.31;;;14.69;41.50
77205;BME280;67992;46.618;18.850;2023-04-12T09:40:50;99709.09;;;14.70;42.05
77205;BME280;67992;46.618;18.850;2023-04-12T09:43:16;99699.22;;;14.70;41.26
77205;BME280;67992;46.618;18.850;2023-04-12T09:45:44;99696.56;;;14.70;41.73
77205;BME280;67992;46.618;18.850;2023-04-12T09:48:19;99686.88;;;14.69;41.99
77205;BME280;67992;46.618;18.850;2023-04-12T09:50:45;99681.31;;;14.71;41.86
77205;BME280;67992;46.618;18.850;2023-04-12T09:53:17;99686.03;;;14.69;42.01
77205;BME280;67992;46.618;18.850;2023-04-12T09:55:43;99682.31;;;14.70;41.62
77205;BME280;67992;46.618;18.850;2023-04-12T09:58:14;99670.41;;;14.72;41.52
77205;BME280;67992;46.618;18.850;2023-04-12T10:00:43;99674.13;;;14.71;41.23
77205;BME280;67992;46.618;18.850;2023-04-12T10:03:13;99664.97;;;14.66;41.91
77205;BME280;67992;46.618;18.850;2023-04-12T10:05:42;99660.25;;;14.68;41.18
77205;BME280;67992;46.618;18.850;2023-04-12T10:08:10;99668.78;;;14.71;41.62
77205;BME280;67992;46.618;18.850;2023-04-12T10:10:42;99655.25;;;14.65;41.85
77205;BME280;67992;46.618;18.850;2023-04-12T10:13:14;99659.06;;;14.70;41.29
77205;BME280;67992;46.618;18.850;2023-04-12T10:15:47;99664.25;;;14.72;41.88
77205;BME280;67992;46.618;18.850;2023-04-12T10:18:15;99658.06;;;14.71;41.72
77205;BME280;67992;46.618;18.850;2023-04-12T10:20:44;99655.38;;;14.71;41.65
77205;BME280;67992;46.618;18.850;2023-04-12T10:23:10;99655.94;;;14.67;41.37
77205;BME280;67992;46.618;18.850;2023-04-12T10:25:38;99660.72;;;14.71;41.42
77205;BME280;67992;46.618;18.850;2023-04-12T10:28:19;99647.22;;;14.65;42.13
77205;BME280;67992;46.618;18.850;2023-04-12T10:30:46;99654.75;;;14.69;41.74
77205;BME280;67992;46.618;18.850;2023-04-12T10:33:25;99647.72;;;14.68;41.52
77205;BME280;67992;46.618;18.850;2023-04-12T10:35:56;99628.66;;;14.63;41.79
77205;BME280;67992;46.618;18.850;2023-04-12T10:38:23;99639.66;;;14.68;41.26
77205;BME280;67992;46.618;18.850;2023-04-12T10:41:11;99636.78;;;14.70;41.63
77205;BME280;67992;46.618;18.850;2023-04-12T10:43:47;99625.44;;;14.68;41.54
77205;BME280;67992;46.618;18.850;2023-04-12T10:49:13;99621.94;;;14.67;41.49
77205;BME280;67992;46.618;18.850;2023-04-12T10:52:25;99620.09;;;14.68;41.77
77205;BME280;67992;46.618;18.850;2023-04-12T10:54:32;99602.81;;;14.55;42.25
77205;BME280;67992;46.618;18.850;2023-04-12T10:57:05;99621.13;;;14.67;41.43
77205;BME280;67992;46.618;18.850;2023-04-12T10:59:49;99620.09;;;14.68;41.54
77205;BME280;67992;46.618;18.850;2023-04-12T11:02:18;99613.44;;;14.64;41.68
77205;BME280;67992;46.618;18.850;2023-04-12T11:05:09;99616.56;;;14.67;42.31
77205;BME280;67992;46.618;18.850;2023-04-12T11:07:43;99608.72;;;14.66;42.32
77205;BME280;67992;46.618;18.850;2023-04-12T11:10:30;99608.72;;;14.66;41.66
77205;BME280;67992;46.618;18.850;2023-04-12T11:13:08;99614.09;;;14.66;41.83
77205;BME280;67992;46.618;18.850;2023-04-12T11:15:33;99610.56;;;14.65;41.94
77205;BME280;67992;46.618;18.850;2023-04-12T11:17:59;99605.41;;;14.64;41.27
77205;BME280;67992;46.618;18.850;2023-04-12T11:20:26;99599.84;;;14.65;42.17
77205;BME280;67992;46.618;18.850;2023-04-12T11:22:55;99598.75;;;14.60;41.87
77205;BME280;67992;46.618;18.850;2023-04-12T11:25:21;99593.56;;;14.58;41.75
77205;BME280;67992;46.618;18.850;2023-04-12T11:27:51;99587.03;;;14.61;42.20
77205;BME280;67992;46.618;18.850;2023-04-12T11:30:20;99586.81;;;14.62;42.06
77205;BME280;67992;46.618;18.850;2023-04-12T11:32:47;99588.03;;;14.60;42.18
77205;BME280;67992;46.618;18.850;2023-04-12T11:35:15;99578.72;;;14.55;41.70
77205;BME280;67992;46.618;18.850;2023-04-12T11:37:44;99581.47;;;14.62;42.09
77205;BME280;67992;46.618;18.850;2023-04-12T11:40:16;99572.63;;;14.62;41.84
77205;BME280;67992;46.618;18.850;2023-04-12T11:42:47;99582.50;;;14.61;41.84
77205;BME280;67992;46.618;18.850;2023-04-12T11:45:18;99574.47;;;14.61;42.07
77205;BME280;67992;46.618;18.850;2023-04-12T11:47:46;99567.44;;;14.60;42.24
77205;BME280;67992;46.618;18.850;2023-04-12T11:50:26;99561.09;;;14.61;42.08
77205;BME280;67992;46.618;18.850;2023-04-12T11:52:51;99558.41;;;14.61;42.02
77205;BME280;67992;46.618;18.850;2023-04-12T11:55:17;99559.13;;;14.55;41.92
77205;BME280;67992;46.618;18.850;2023-04-12T11:57:52;99547.31;;;14.49;41.79
77205;BME280;67992;46.618;18.850;2023-04-12T12:00:18;99547.97;;;14.51;41.67
77205;BME280;67992;46.618;18.850;2023-04-12T12:02:44;99566.59;;;14.60;42.07
77205;BME280;67992;46.618;18.850;2023-04-12T12:05:11;99556.94;;;14.59;41.95
77205;BME280;67992;46.618;18.850;2023-04-12T12:07:37;99550.38;;;14.61;41.61
77205;BME280;67992;46.618;18.850;2023-04-12T12:10:03;99546.22;;;14.59;41.83
77205;BME280;67992;46.618;18.850;2023-04-12T12:12:32;99538.75;;;14.54;41.60
77205;BME280;67992;46.618;18.850;2023-04-12T12:15:02;99545.19;;;14.60;42.04
77205;BME280;67992;46.618;18.850;2023-04-12T12:17:39;99529.50;;;14.57;42.56
77205;BME280;67992;46.618;18.850;2023-04-12T12:20:05;99535.31;;;14.60;42.37
77205;BME280;67992;46.618;18.850;2023-04-12T12:22:31;99527.63;;;14.57;42.37
77205;BME280;67992;46.618;18.850;2023-04-12T12:24:58;99532.00;;;14.58;42.33
77205;BME280;67992;46.618;18.850;2023-04-12T12:27:33;99527.47;;;14.59;42.29
77205;BME280;67992;46.618;18.850;2023-04-12T12:30:03;99520.16;;;14.52;42.16
77205;BME280;67992;46.618;18.850;2023-04-12T12:32:36;99526.00;;;14.56;42.24
77205;BME280;67992;46.618;18.850;2023-04-12T12:35:11;99524.81;;;14.59;42.19
77205;BME280;67992;46.618;18.850;2023-04-12T12:37:48;99528.47;;;14.57;41.76
77205;BME280;67992;46.618;18.850;2023-04-12T12:40:15;99519.44;;;14.59;42.65
77205;BME280;67992;46.618;18.850;2023-04-12T12:42:54;99516.94;;;14.57;42.14
77205;BME280;67992;46.618;18.850;2023-04-12T12:45:24;99507.06;;;14.57;42.29
77205;BME280;67992;46.618;18.850;2023-04-12T12:50:27;99496.34;;;14.57;41.89
77205;BME280;67992;46.618;18.850;2023-04-12T12:52:55;99493.03;;;14.55;42.82
77205;BME280;67992;46.618;18.850;2023-04-12T12:55:22;99496.34;;;14.57;42.21
77205;BME280;67992;46.618;18.850;2023-04-12T12:57:54;99502.34;;;14.60;42.20
77205;BME280;67992;46.618;18.850;2023-04-12T13:00:27;99496.34;;;14.57;42.54
77205;BME280;67992;46.618;18.850;2023-04-12T13:02:52;99500.69;;;14.59;41.84
77205;BME280;67992;46.618;18.850;2023-04-12T13:05:19;99502.34;;;14.60;42.49
77205;BME280;67992;46.618;18.850;2023-04-12T13:07:45;99501.34;;;14.61;42.46
77205;BME280;67992;46.618;18.850;2023-04-12T13:10:11;99499.66;;;14.60;42.10
77205;BME280;67992;46.618;18.850;2023-04-12T13:12:37;99492.31;;;14.62;42.46
77205;BME280;67992;46.618;18.850;2023-04-12T13:15:03;99484.28;;;14.62;41.93